Lucky Lake, Canada
Current Conditions -  °F | °C
As of 10:00 AM on Sunday 25 Jan 2015 (Local Time) from CYYN Reporting Station
Broken Clouds Broken Clouds  
Wind Chill: 25°   Ceiling: 18000
Heat Index: 36°   Visibility: 9mi
Dew Point: 25°   Wind: 21mph
Humidity: 65%   Direction: 210°SSW
Pressure: 29.76"   Gusts: 26mph
Location:  50.98°N, 107.13°W
Report Text: CYYN 251600Z AUTO 21018G23KT 9SM SCT080 SCT150 BKN180 BKN200 02/M04 A2976 RMK PRESFR SLP106
Loading
Personal Weather Stations






























Interactive Weather Map New forecast layout! Learn more

10-Day Weather Forecast

Advertisements
Track Severe Weather on mobile